createdAt,value
2023-05-14T00:01:04.671Z,6.93
2023-05-14T00:03:31.675Z,4.80
2023-05-14T00:05:58.453Z,7.45
2023-05-14T00:08:25.029Z,8.17
2023-05-14T00:10:52.056Z,5.53
2023-05-14T00:13:20.000Z,7.75
2023-05-14T00:15:46.601Z,8.38
2023-05-14T00:18:13.250Z,6.35
2023-05-14T00:20:40.521Z,5.87
2023-05-14T00:23:07.162Z,13.52
2023-05-14T00:25:33.940Z,7.03
2023-05-14T00:28:00.566Z,5.97
2023-05-14T00:30:28.733Z,9.57
2023-05-14T00:32:55.409Z,6.10
2023-05-14T00:35:22.118Z,5.82
2023-05-14T00:37:48.875Z,5.55
2023-05-14T00:40:15.624Z,11.30
2023-05-14T00:42:42.441Z,6.40
2023-05-14T00:45:09.805Z,6.03
2023-05-14T00:47:38.065Z,7.38
2023-05-14T00:50:05.906Z,7.85
2023-05-14T00:52:33.185Z,6.43
2023-05-14T00:55:03.149Z,7.00
2023-05-14T00:57:29.833Z,5.73
2023-05-14T00:59:56.541Z,7.25
2023-05-14T01:02:23.273Z,6.25
2023-05-14T01:04:52.075Z,6.07
2023-05-14T01:07:29.477Z,8.00
2023-05-14T01:10:00.850Z,8.90
2023-05-14T01:12:33.982Z,9.43
2023-05-14T01:15:04.850Z,5.03
2023-05-14T01:17:33.421Z,7.43
2023-05-14T01:20:02.229Z,7.10
2023-05-14T01:22:30.114Z,8.70
2023-05-14T01:24:56.673Z,5.50
2023-05-14T01:27:31.276Z,5.38
2023-05-14T01:30:07.747Z,7.30
2023-05-14T01:32:35.365Z,6.95
2023-05-14T01:35:02.577Z,5.77
2023-05-14T01:37:32.072Z,5.88
2023-05-14T01:39:59.957Z,6.45
2023-05-14T01:42:28.197Z,6.00
2023-05-14T01:44:55.026Z,8.25
2023-05-14T01:47:21.575Z,6.50
2023-05-14T01:49:48.300Z,8.85
2023-05-14T01:52:14.876Z,8.27
2023-05-14T01:54:42.837Z,6.68
2023-05-14T01:57:09.408Z,6.85
2023-05-14T01:59:36.342Z,6.83
2023-05-14T02:02:02.954Z,6.28
2023-05-14T02:04:29.563Z,7.63
2023-05-14T02:06:56.372Z,5.20
2023-05-14T02:09:22.945Z,6.68
2023-05-14T02:11:51.176Z,6.87
2023-05-14T02:14:17.704Z,6.80
2023-05-14T02:16:44.252Z,7.30
2023-05-14T02:19:10.973Z,6.18
2023-05-14T02:21:37.533Z,6.45
2023-05-14T02:24:04.137Z,10.30
2023-05-14T02:26:30.744Z,6.20
2023-05-14T02:28:58.666Z,7.47
2023-05-14T02:31:25.637Z,7.53
2023-05-14T02:33:52.296Z,8.75
2023-05-14T02:36:19.018Z,5.77
2023-05-14T02:38:45.615Z,8.20
2023-05-14T02:41:12.170Z,5.90
2023-05-14T02:43:38.728Z,12.05
2023-05-14T02:46:06.648Z,5.72
2023-05-14T02:48:33.283Z,6.80
2023-05-14T02:51:00.147Z,7.75
2023-05-14T02:53:26.646Z,7.30
2023-05-14T02:55:53.465Z,7.38
2023-05-14T02:58:20.029Z,11.30
2023-05-14T03:00:52.832Z,5.33
2023-05-14T03:03:21.429Z,8.32
2023-05-14T03:05:48.745Z,6.53
2023-05-14T03:08:15.510Z,5.88
2023-05-14T03:10:42.107Z,10.10
2023-05-14T03:13:08.771Z,8.43
2023-05-14T03:15:35.571Z,7.10
2023-05-14T03:18:02.293Z,7.72
2023-05-14T03:20:30.315Z,7.88
2023-05-14T03:22:56.907Z,10.40
2023-05-14T03:25:23.717Z,11.40
2023-05-14T03:27:50.290Z,12.93
2023-05-14T03:30:17.019Z,11.50
2023-05-14T03:32:43.863Z,9.40
2023-05-14T03:35:10.761Z,5.90
2023-05-14T03:37:38.701Z,9.00
2023-05-14T03:40:06.884Z,9.88
2023-05-14T03:42:33.498Z,9.80
2023-05-14T03:45:00.027Z,7.68
2023-05-14T03:47:26.739Z,14.07
2023-05-14T03:49:53.324Z,8.07
2023-05-14T03:52:19.925Z,8.65
2023-05-14T03:54:47.898Z,11.95
2023-05-14T03:57:14.632Z,10.05
2023-05-14T03:59:41.199Z,8.20
2023-05-14T04:02:07.835Z,9.73
2023-05-14T04:04:34.434Z,8.38
2023-05-14T04:07:01.489Z,7.93
2023-05-14T04:09:28.084Z,11.60
2023-05-14T04:11:56.223Z,9.57
2023-05-14T04:14:22.858Z,7.07
2023-05-14T04:16:49.432Z,8.68
2023-05-14T04:19:16.358Z,7.72
2023-05-14T04:21:43.174Z,7.13
2023-05-14T04:24:09.825Z,9.05
2023-05-14T04:26:36.392Z,6.73
2023-05-14T04:29:04.509Z,8.45
2023-05-14T04:31:31.060Z,10.20
2023-05-14T04:33:57.623Z,8.57
2023-05-14T04:36:24.236Z,9.45
2023-05-14T04:38:50.823Z,7.53
2023-05-14T04:41:17.390Z,7.75
2023-05-14T04:43:43.989Z,7.90
2023-05-14T04:46:11.955Z,6.20
2023-05-14T04:48:38.838Z,10.02
2023-05-14T04:51:07.091Z,9.70
2023-05-14T04:53:33.957Z,9.93
2023-05-14T04:56:00.517Z,6.00
2023-05-14T04:58:27.294Z,9.02
2023-05-14T05:00:53.904Z,8.40
2023-05-14T05:03:22.020Z,10.60
2023-05-14T05:05:48.682Z,11.00
2023-05-14T05:08:15.265Z,7.88
2023-05-14T05:10:41.820Z,11.30
2023-05-14T05:13:08.390Z,6.30
2023-05-14T05:15:35.002Z,6.33
2023-05-14T05:18:01.773Z,6.03
2023-05-14T05:20:29.974Z,9.85
2023-05-14T05:22:56.763Z,9.60
2023-05-14T05:25:23.387Z,8.02
2023-05-14T05:27:49.940Z,7.27
2023-05-14T05:30:16.837Z,7.72
2023-05-14T05:32:43.661Z,8.00
2023-05-14T05:35:10.274Z,7.32
2023-05-14T05:37:38.689Z,8.88
2023-05-14T05:40:06.625Z,6.40
2023-05-14T05:42:33.403Z,6.35
2023-05-14T05:44:59.982Z,9.45
2023-05-14T05:47:26.979Z,10.18
2023-05-14T05:49:53.619Z,9.73
2023-05-14T05:52:20.258Z,7.47
2023-05-14T05:54:48.173Z,5.90
2023-05-14T05:57:15.084Z,11.07
2023-05-14T05:59:41.724Z,8.05
2023-05-14T06:02:08.735Z,9.30
2023-05-14T06:04:35.361Z,6.13
2023-05-14T06:07:01.957Z,6.45
2023-05-14T06:09:28.729Z,7.28
2023-05-14T06:11:56.639Z,7.20
2023-05-14T06:14:23.320Z,8.00
2023-05-14T06:16:49.964Z,8.03
2023-05-14T06:19:16.562Z,6.75
2023-05-14T06:21:43.260Z,7.70
2023-05-14T06:24:10.332Z,7.65
2023-05-14T06:26:36.887Z,7.65
2023-05-14T06:29:04.979Z,8.40
2023-05-14T06:31:31.540Z,10.05
2023-05-14T06:33:58.276Z,8.10
2023-05-14T06:36:24.872Z,7.10
2023-05-14T06:38:51.527Z,10.68
2023-05-14T06:41:18.088Z,8.10
2023-05-14T06:43:44.700Z,11.07
2023-05-14T06:46:12.633Z,7.60
2023-05-14T06:48:39.259Z,5.15
2023-05-14T06:51:05.989Z,7.72
2023-05-14T06:53:32.601Z,8.13
2023-05-14T06:55:59.359Z,5.22
2023-05-14T06:58:25.962Z,5.07
2023-05-14T07:00:52.541Z,4.95
2023-05-14T07:03:20.452Z,6.68
2023-05-14T07:05:47.030Z,8.90
2023-05-14T07:08:13.838Z,6.25
2023-05-14T07:10:40.393Z,4.28
2023-05-14T07:13:07.887Z,5.88
2023-05-14T07:15:34.793Z,6.25
2023-05-14T07:18:01.583Z,4.87
2023-05-14T07:20:29.781Z,5.28
2023-05-14T07:22:56.362Z,6.38
2023-05-14T07:25:23.003Z,5.30
2023-05-14T07:27:49.598Z,9.73
2023-05-14T07:30:16.199Z,4.80
2023-05-14T07:32:43.411Z,5.03
2023-05-14T07:35:10.294Z,5.13
2023-05-14T07:37:38.503Z,9.00
2023-05-14T07:40:06.226Z,6.07
2023-05-14T07:42:36.664Z,5.47
2023-05-14T07:45:04.568Z,8.52
2023-05-14T07:47:31.734Z,5.18
2023-05-14T07:49:59.047Z,5.22
2023-05-14T07:52:25.617Z,6.72
2023-05-14T07:54:53.691Z,6.00
2023-05-14T07:57:20.297Z,5.07
2023-05-14T07:59:47.869Z,5.10
2023-05-14T08:02:14.895Z,4.95
2023-05-14T08:04:41.731Z,6.15
2023-05-14T08:07:08.807Z,4.20
2023-05-14T08:09:35.745Z,6.97
2023-05-14T08:12:04.385Z,6.20
2023-05-14T08:14:31.105Z,8.02
2023-05-14T08:16:57.824Z,6.45
2023-05-14T08:19:24.451Z,9.03
2023-05-14T08:21:51.176Z,7.00
2023-05-14T08:24:19.004Z,6.10
2023-05-14T08:26:45.585Z,9.23
2023-05-14T08:29:16.304Z,7.00
2023-05-14T08:31:43.714Z,7.23
2023-05-14T08:34:10.364Z,6.35
2023-05-14T08:36:37.840Z,9.52
2023-05-14T08:39:04.393Z,6.22
2023-05-14T08:41:31.677Z,7.18
2023-05-14T08:44:06.734Z,8.63
2023-05-14T08:46:36.991Z,7.07
2023-05-14T08:49:10.793Z,7.68
2023-05-14T08:51:38.183Z,5.22
2023-05-14T08:54:05.801Z,5.65
2023-05-14T08:56:33.316Z,5.00
2023-05-14T08:58:59.877Z,5.80
2023-05-14T09:01:27.390Z,5.70
2023-05-14T09:03:56.496Z,4.13
2023-05-14T09:06:25.461Z,5.90
2023-05-14T09:08:53.336Z,4.47
2023-05-14T09:11:19.931Z,5.40
2023-05-14T09:13:46.496Z,5.85
2023-05-14T09:16:13.548Z,5.75
2023-05-14T09:18:43.586Z,3.97
2023-05-14T09:21:13.650Z,4.40
2023-05-14T09:23:42.984Z,2.90
2023-05-14T09:26:09.650Z,3.03
2023-05-14T09:28:40.191Z,4.30
2023-05-14T09:31:06.870Z,3.10
2023-05-14T09:33:33.507Z,2.70
2023-05-14T09:36:00.708Z,5.00
2023-05-14T09:38:32.792Z,3.65
2023-05-14T09:41:00.284Z,6.20
2023-05-14T09:43:26.863Z,2.85
2023-05-14T09:45:54.167Z,4.57
2023-05-14T09:48:20.850Z,3.85
2023-05-14T09:50:47.496Z,3.72
2023-05-14T09:53:14.240Z,5.15
2023-05-14T09:55:42.267Z,3.63
2023-05-14T09:58:09.019Z,3.70
2023-05-14T10:00:35.701Z,3.22
2023-05-14T10:03:05.669Z,3.65
2023-05-14T10:05:35.015Z,4.43
2023-05-14T10:08:04.620Z,4.72
2023-05-14T10:10:32.505Z,4.07
2023-05-14T10:13:03.950Z,2.67
2023-05-14T10:15:36.905Z,3.58
2023-05-14T10:18:09.585Z,3.50
2023-05-14T10:20:37.713Z,3.85
2023-05-14T10:23:04.773Z,4.40
2023-05-14T10:25:31.965Z,4.28
2023-05-14T10:28:00.267Z,3.80
2023-05-14T10:30:27.211Z,4.63
2023-05-14T10:33:11.567Z,3.50
2023-05-14T10:36:00.899Z,3.10
2023-05-14T10:38:28.642Z,6.15
2023-05-14T10:40:57.465Z,2.63
2023-05-14T10:43:27.656Z,3.03
2023-05-14T10:45:54.393Z,2.97
2023-05-14T10:48:21.011Z,2.90
2023-05-14T10:50:48.264Z,3.33
2023-05-14T10:53:15.272Z,3.33
2023-05-14T10:55:43.261Z,4.32
2023-05-14T10:58:10.673Z,4.85
2023-05-14T11:00:39.551Z,2.90
2023-05-14T11:03:07.051Z,2.22
2023-05-14T11:05:34.343Z,5.18
2023-05-14T11:08:04.366Z,4.95
2023-05-14T11:10:32.430Z,2.30
2023-05-14T11:12:59.449Z,3.47
2023-05-14T11:15:28.832Z,2.47
2023-05-14T11:17:58.109Z,2.42
2023-05-14T11:20:25.050Z,5.72
2023-05-14T11:22:52.034Z,3.67
2023-05-14T11:25:18.582Z,2.90
2023-05-14T11:27:46.228Z,4.13
2023-05-14T11:30:14.804Z,3.70
2023-05-14T11:32:43.467Z,3.97
2023-05-14T11:35:11.927Z,4.80
2023-05-14T11:37:38.922Z,3.20
2023-05-14T11:40:08.981Z,4.25
2023-05-14T11:42:36.930Z,5.87
2023-05-14T11:45:04.182Z,2.88
2023-05-14T11:47:30.974Z,2.85
2023-05-14T11:49:58.817Z,2.63
2023-05-14T11:52:26.800Z,4.07
2023-05-14T11:54:53.393Z,2.83
2023-05-14T11:57:20.946Z,4.35
2023-05-14T11:59:48.515Z,5.82
2023-05-14T12:02:17.394Z,6.63
2023-05-14T12:04:44.882Z,3.53
2023-05-14T12:07:12.832Z,3.03
2023-05-14T12:09:45.089Z,4.68
2023-05-14T12:12:12.888Z,3.63
2023-05-14T12:14:42.501Z,2.83
2023-05-14T12:17:13.930Z,5.78
2023-05-14T12:19:41.600Z,4.15
2023-05-14T12:22:08.420Z,3.67
2023-05-14T12:24:35.232Z,5.57
2023-05-14T12:27:03.640Z,2.77
2023-05-14T12:29:30.398Z,6.63
2023-05-14T12:31:57.956Z,4.05
2023-05-14T12:34:24.570Z,2.85
2023-05-14T12:36:51.185Z,2.65
2023-05-14T12:39:17.872Z,6.87
2023-05-14T12:41:44.654Z,2.30
2023-05-14T12:44:12.776Z,2.95
2023-05-14T12:46:39.497Z,6.68
2023-05-14T12:49:06.045Z,5.63
2023-05-14T12:51:32.705Z,3.53
2023-05-14T12:53:59.288Z,2.92
2023-05-14T12:56:26.015Z,4.55
2023-05-14T12:58:52.841Z,3.42
2023-05-14T13:01:20.937Z,2.30
2023-05-14T13:03:47.644Z,3.70
2023-05-14T13:06:14.306Z,2.40
2023-05-14T13:08:42.612Z,3.55
2023-05-14T13:11:09.322Z,4.72
2023-05-14T13:13:35.925Z,2.42
2023-05-14T13:16:03.387Z,2.90
2023-05-14T13:18:31.759Z,2.22
2023-05-14T13:20:58.434Z,2.45
2023-05-14T13:23:25.007Z,3.78
2023-05-14T13:25:51.941Z,3.25
2023-05-14T13:28:18.504Z,3.20
2023-05-14T13:31:03.987Z,4.18
2023-05-14T13:33:32.962Z,3.40
2023-05-14T13:36:00.055Z,2.30
2023-05-14T13:38:27.103Z,2.88
2023-05-14T13:40:54.151Z,2.47
2023-05-14T13:43:20.908Z,2.50
2023-05-14T13:45:47.470Z,5.10
2023-05-14T13:48:14.086Z,2.53
2023-05-14T13:50:42.096Z,3.40
2023-05-14T13:53:08.629Z,2.63
2023-05-14T13:55:35.654Z,3.25
2023-05-14T13:58:02.631Z,5.18
2023-05-14T14:00:29.311Z,3.13
2023-05-14T14:02:55.971Z,2.60
2023-05-14T14:05:23.323Z,2.77
2023-05-14T14:07:54.770Z,4.78
2023-05-14T14:10:28.158Z,4.25
2023-05-14T14:12:57.745Z,2.67
2023-05-14T14:15:24.531Z,2.25
2023-05-14T14:17:51.368Z,3.87
2023-05-14T14:20:18.159Z,3.20
2023-05-14T14:22:44.718Z,2.75
2023-05-14T14:25:12.702Z,2.80
2023-05-14T14:27:39.475Z,3.50
2023-05-14T14:30:08.105Z,2.47
2023-05-14T14:32:34.884Z,2.65
2023-05-14T14:35:01.566Z,2.47
2023-05-14T14:37:28.271Z,3.00
2023-05-14T14:39:54.866Z,5.35
2023-05-14T14:42:23.403Z,4.90
2023-05-14T14:44:50.556Z,3.03
2023-05-14T14:47:17.190Z,3.00
2023-05-14T14:49:43.762Z,3.75
2023-05-14T14:52:10.541Z,2.55
2023-05-14T14:54:37.600Z,2.60
2023-05-14T14:57:05.081Z,3.75
2023-05-14T14:59:35.008Z,2.42
2023-05-14T15:02:01.969Z,2.25
2023-05-14T15:04:28.526Z,4.45
2023-05-14T15:06:55.103Z,5.43
2023-05-14T15:09:21.681Z,2.65
2023-05-14T15:11:48.290Z,4.20
2023-05-14T15:14:14.852Z,3.28
2023-05-14T15:16:42.951Z,5.47
2023-05-14T15:19:09.553Z,2.30
2023-05-14T15:21:36.219Z,2.25
2023-05-14T15:24:03.356Z,3.42
2023-05-14T15:26:30.017Z,2.63
2023-05-14T15:28:56.565Z,3.20
2023-05-14T15:31:23.374Z,3.43
2023-05-14T15:33:51.490Z,2.65
2023-05-14T15:36:18.071Z,3.50
2023-05-14T15:38:44.963Z,4.32
2023-05-14T15:41:11.562Z,2.20
2023-05-14T15:44:07.170Z,2.80
2023-05-14T15:46:33.867Z,2.67
2023-05-14T15:49:01.780Z,2.50
2023-05-14T15:51:28.861Z,2.85
2023-05-14T15:53:55.539Z,2.42
2023-05-14T15:56:22.955Z,3.20
2023-05-14T15:58:49.972Z,3.85
2023-05-14T16:01:16.785Z,1.70
2023-05-14T16:03:43.672Z,3.63
2023-05-14T16:06:11.826Z,2.80
2023-05-14T16:08:38.567Z,1.93
2023-05-14T16:11:05.906Z,2.10
2023-05-14T16:13:32.543Z,1.90
2023-05-14T16:15:59.826Z,3.95
2023-05-14T16:18:26.867Z,2.40
2023-05-14T16:20:53.665Z,2.67
2023-05-14T16:23:23.919Z,4.18
2023-05-14T16:25:50.638Z,3.60
2023-05-14T16:28:17.409Z,5.28
2023-05-14T16:30:44.024Z,2.55
2023-05-14T16:33:10.810Z,2.87
2023-05-14T16:35:37.565Z,2.15
2023-05-14T16:38:04.204Z,2.28
2023-05-14T16:40:32.238Z,2.13
2023-05-14T16:42:58.842Z,3.30
2023-05-14T16:45:25.912Z,3.03
2023-05-14T16:47:52.860Z,1.92
2023-05-14T16:50:19.748Z,2.55
2023-05-14T16:52:46.525Z,3.65
2023-05-14T16:55:13.322Z,2.58
2023-05-14T16:57:41.366Z,2.37
2023-05-14T17:00:09.523Z,2.60
2023-05-14T17:02:36.265Z,1.85
2023-05-14T17:05:03.231Z,5.60
2023-05-14T17:07:30.099Z,2.13
2023-05-14T17:09:57.122Z,4.93
2023-05-14T17:12:23.842Z,3.60
2023-05-14T17:14:51.893Z,1.90
2023-05-14T17:17:18.842Z,4.40
2023-05-14T17:19:45.495Z,3.38
2023-05-14T17:22:12.314Z,2.10
2023-05-14T17:24:38.961Z,3.05
2023-05-14T17:27:06.004Z,2.40
2023-05-14T17:29:32.683Z,2.45
2023-05-14T17:32:00.733Z,2.20
2023-05-14T17:34:27.619Z,2.80
2023-05-14T17:36:54.189Z,4.28
2023-05-14T17:39:20.846Z,2.10
2023-05-14T17:41:47.429Z,3.15
2023-05-14T17:44:14.028Z,1.73
2023-05-14T17:46:40.703Z,2.00
2023-05-14T17:49:08.667Z,2.05
2023-05-14T17:51:35.250Z,2.85
2023-05-14T17:54:02.314Z,4.13
2023-05-14T17:56:29.606Z,2.78
2023-05-14T17:58:56.141Z,2.30
2023-05-14T18:01:22.782Z,2.78
2023-05-14T18:03:49.706Z,4.28
2023-05-14T18:06:17.777Z,4.32
2023-05-14T18:08:44.361Z,3.83
2023-05-14T18:11:10.950Z,3.53
2023-05-14T18:13:37.625Z,2.38
2023-05-14T18:16:05.154Z,2.40
2023-05-14T18:18:32.019Z,3.58
2023-05-14T18:20:58.589Z,2.80
2023-05-14T18:23:26.840Z,5.37
2023-05-14T18:25:53.997Z,2.42
2023-05-14T18:28:20.650Z,3.38
2023-05-14T18:30:47.426Z,3.92
2023-05-14T18:33:14.118Z,2.40
2023-05-14T18:35:41.646Z,4.50
2023-05-14T18:38:08.219Z,4.40
2023-05-14T18:40:36.179Z,2.90
2023-05-14T18:43:02.770Z,2.67
2023-05-14T18:45:29.516Z,2.63
2023-05-14T18:47:56.366Z,7.80
2023-05-14T18:50:22.955Z,2.40
2023-05-14T18:52:49.564Z,4.20
2023-05-14T18:55:16.128Z,3.47
2023-05-14T18:57:45.127Z,3.63
2023-05-14T19:00:13.046Z,2.70
2023-05-14T19:02:39.684Z,3.00
2023-05-14T19:05:07.395Z,2.65
2023-05-14T19:07:33.992Z,3.40
2023-05-14T19:10:00.600Z,4.10
2023-05-14T19:12:27.174Z,2.97
2023-05-14T19:14:55.336Z,2.97
2023-05-14T19:17:21.963Z,4.55
2023-05-14T19:19:48.531Z,2.63
2023-05-14T19:22:15.031Z,4.40
2023-05-14T19:24:41.609Z,5.27
2023-05-14T19:27:08.682Z,3.97
2023-05-14T19:29:35.590Z,4.57
2023-05-14T19:32:03.786Z,3.13
2023-05-14T19:34:30.679Z,3.67
2023-05-14T19:36:57.289Z,3.70
2023-05-14T19:39:23.880Z,3.75
2023-05-14T19:41:50.459Z,3.17
2023-05-14T19:44:17.160Z,4.15
2023-05-14T19:46:43.754Z,2.60
2023-05-14T19:49:11.720Z,3.20
2023-05-14T19:51:38.338Z,2.00
2023-05-14T19:54:05.164Z,2.53
2023-05-14T19:56:31.749Z,2.10
2023-05-14T19:58:58.358Z,2.65
2023-05-14T20:01:25.033Z,2.00
2023-05-14T20:03:51.695Z,1.90
2023-05-14T20:06:19.806Z,2.30
2023-05-14T20:08:46.409Z,2.35
2023-05-14T20:11:13.068Z,2.13
2023-05-14T20:13:39.630Z,2.47
2023-05-14T20:16:06.455Z,3.58
2023-05-14T20:18:33.198Z,1.90
2023-05-14T20:20:59.856Z,1.80
2023-05-14T20:23:27.797Z,2.45
2023-05-14T20:25:54.363Z,1.80
2023-05-14T20:28:21.022Z,1.80
2023-05-14T20:30:47.708Z,2.00
2023-05-14T20:33:14.439Z,1.98
2023-05-14T20:35:41.105Z,3.05
2023-05-14T20:38:07.709Z,3.63
2023-05-14T20:40:35.644Z,1.80
2023-05-14T20:43:02.398Z,3.63
2023-05-14T20:45:29.001Z,1.88
2023-05-14T20:47:55.584Z,2.00
2023-05-14T20:50:22.831Z,2.07
2023-05-14T20:52:49.530Z,1.70
2023-05-14T20:55:16.331Z,1.80
2023-05-14T20:57:44.314Z,1.67
2023-05-14T21:00:12.114Z,1.73
2023-05-14T21:02:38.843Z,2.20
2023-05-14T21:05:06.589Z,2.10
2023-05-14T21:07:33.150Z,3.33
2023-05-14T21:09:59.757Z,2.30
2023-05-14T21:12:26.518Z,1.90
2023-05-14T21:14:54.407Z,2.70
2023-05-14T21:17:21.169Z,1.83
2023-05-14T21:19:47.588Z,2.63
2023-05-14T21:22:14.125Z,1.80
2023-05-14T21:24:41.020Z,2.10
2023-05-14T21:27:07.794Z,1.90
2023-05-14T21:29:34.343Z,2.13
2023-05-14T21:32:02.348Z,2.20
2023-05-14T21:34:29.860Z,2.00
2023-05-14T21:36:58.381Z,2.70
2023-05-14T21:39:25.186Z,2.33
2023-05-14T21:41:51.838Z,1.88
2023-05-14T21:44:18.402Z,1.83
2023-05-14T21:46:45.040Z,4.00
2023-05-14T21:49:12.976Z,2.35
2023-05-14T21:51:44.676Z,2.37
2023-05-14T21:54:11.175Z,5.95
2023-05-14T21:56:38.114Z,2.10
2023-05-14T21:59:04.911Z,2.30
2023-05-14T22:01:32.591Z,2.33
2023-05-14T22:04:00.471Z,6.67
2023-05-14T22:06:28.453Z,3.17
2023-05-14T22:08:55.050Z,3.28
2023-05-14T22:11:21.475Z,2.42
2023-05-14T22:13:48.046Z,2.88
2023-05-14T22:16:14.781Z,3.07
2023-05-14T22:18:41.382Z,2.30
2023-05-14T22:21:08.012Z,2.38
2023-05-14T22:23:36.049Z,3.78
2023-05-14T22:26:03.276Z,2.67
2023-05-14T22:28:29.872Z,3.93
2023-05-14T22:30:56.595Z,2.65
2023-05-14T22:33:23.280Z,2.85
2023-05-14T22:35:50.048Z,2.70
2023-05-14T22:38:16.621Z,2.83
2023-05-14T22:40:44.515Z,2.83
2023-05-14T22:43:11.216Z,3.30
2023-05-14T22:45:37.784Z,4.70
2023-05-14T22:48:04.619Z,3.42
2023-05-14T22:50:31.305Z,3.65
2023-05-14T22:52:57.899Z,3.30
2023-05-14T22:55:24.691Z,4.88
2023-05-14T22:57:52.671Z,4.22
2023-05-14T23:00:19.566Z,3.45
2023-05-14T23:02:46.143Z,4.47
2023-05-14T23:05:12.877Z,5.43
2023-05-14T23:07:39.577Z,3.25
2023-05-14T23:10:06.978Z,5.32
2023-05-14T23:12:33.626Z,4.82
2023-05-14T23:15:01.579Z,3.70
2023-05-14T23:17:28.217Z,6.03
2023-05-14T23:19:54.941Z,5.43
2023-05-14T23:22:21.539Z,5.80
2023-05-14T23:24:48.089Z,4.75
2023-05-14T23:27:14.763Z,4.75
2023-05-14T23:29:41.321Z,4.83
2023-05-14T23:32:09.580Z,4.70
2023-05-14T23:34:36.144Z,5.40
2023-05-14T23:37:02.698Z,5.18
2023-05-14T23:39:29.425Z,4.68
2023-05-14T23:41:55.994Z,6.10
2023-05-14T23:44:22.506Z,5.60
2023-05-14T23:46:49.159Z,9.57
2023-05-14T23:49:17.261Z,5.70
2023-05-14T23:51:44.033Z,5.88
2023-05-14T23:54:10.612Z,7.67
2023-05-14T23:56:37.239Z,5.80
2023-05-14T23:59:03.918Z,7.05
